sensor_id;sensor_type;location;lat;lon;timestamp;temperature;humidity
9971;DHT22;5026;51.494;11.974;2022-10-03T00:02:13;9.80;99.90
9971;DHT22;5026;51.494;11.974;2022-10-03T00:05:02;9.90;99.90
9971;DHT22;5026;51.494;11.974;2022-10-03T00:07:49;9.80;99.90
9971;DHT22;5026;51.494;11.974;2022-10-03T00:10:24;9.70;99.90
9971;DHT22;5026;51.494;11.974;2022-10-03T00:13:06;9.70;99.90
9971;DHT22;5026;51.494;11.974;2022-10-03T00:15:38;9.70;99.90
9971;DHT22;5026;51.494;11.974;2022-10-03T00:21:16;9.60;99.90
9971;DHT22;5026;51.494;11.974;2022-10-03T00:23:53;9.60;99.90
9971;DHT22;5026;51.494;11.974;2022-10-03T00:26:32;9.60;99.90
9971;DHT22;5026;51.494;11.974;2022-10-03T00:29:23;9.60;99.90
9971;DHT22;5026;51.494;11.974;2022-10-03T00:31:59;9.60;99.90
9971;DHT22;5026;51.494;11.974;2022-10-03T00:34:36;9.50;99.90
9971;DHT22;5026;51.494;11.974;2022-10-03T00:37:15;9.50;99.90
9971;DHT22;5026;51.494;11.974;2022-10-03T00:43:03;9.50;99.90
9971;DHT22;5026;51.494;11.974;2022-10-03T00:45:54;9.50;99.90
9971;DHT22;5026;51.494;11.974;2022-10-03T00:51:39;9.50;99.90
9971;DHT22;5026;51.494;11.974;2022-10-03T00:54:24;9.50;99.90
9971;DHT22;5026;51.494;11.974;2022-10-03T00:57:06;9.50;99.90
9971;DHT22;5026;51.494;11.974;2022-10-03T00:59:47;9.40;99.90
9971;DHT22;5026;51.494;11.974;2022-10-03T01:02:40;9.40;99.90
9971;DHT22;5026;51.494;11.974;2022-10-03T01:05:15;9.50;99.90
9971;DHT22;5026;51.494;11.974;2022-10-03T01:11:05;9.70;99.90
9971;DHT22;5026;51.494;11.974;2022-10-03T01:13:48;9.80;99.90
9971;DHT22;5026;51.494;11.974;2022-10-03T01:16:24;9.90;99.90
9971;DHT22;5026;51.494;11.974;2022-10-03T01:19:03;10.10;99.90
9971;DHT22;5026;51.494;11.974;2022-10-03T01:21:43;10.10;99.90
9971;DHT22;5026;51.494;11.974;2022-10-03T01:24:25;10.30;99.90
9971;DHT22;5026;51.494;11.974;2022-10-03T01:27:06;10.40;99.90
9971;DHT22;5026;51.494;11.974;2022-10-03T01:29:48;10.40;99.90
9971;DHT22;5026;51.494;11.974;2022-10-03T01:32:42;10.50;99.90
9971;DHT22;5026;51.494;11.974;2022-10-03T01:35:16;10.50;99.90
9971;DHT22;5026;51.494;11.974;2022-10-03T01:37:53;10.60;99.90
9971;DHT22;5026;51.494;11.974;2022-10-03T01:40:27;10.50;99.90
9971;DHT22;5026;51.494;11.974;2022-10-03T01:43:12;10.60;99.90
9971;DHT22;5026;51.494;11.974;2022-10-03T01:45:52;10.60;99.90
9971;DHT22;5026;51.494;11.974;2022-10-03T01:48:25;10.70;99.90
9971;DHT22;5026;51.494;11.974;2022-10-03T01:51:00;10.70;99.90
9971;DHT22;5026;51.494;11.974;2022-10-03T01:53:37;10.70;99.90
9971;DHT22;5026;51.494;11.974;2022-10-03T01:56:10;10.70;99.90
9971;DHT22;5026;51.494;11.974;2022-10-03T01:58:58;10.70;99.90
9971;DHT22;5026;51.494;11.974;2022-10-03T02:01:36;10.70;99.90
9971;DHT22;5026;51.494;11.974;2022-10-03T02:04:11;10.70;99.90
9971;DHT22;5026;51.494;11.974;2022-10-03T02:06:46;10.80;99.90
9971;DHT22;5026;51.494;11.974;2022-10-03T02:09:24;10.70;99.90
9971;DHT22;5026;51.494;11.974;2022-10-03T02:12:00;10.70;99.90
9971;DHT22;5026;51.494;11.974;2022-10-03T02:14:34;10.70;99.90
9971;DHT22;5026;51.494;11.974;2022-10-03T02:17:10;10.80;99.90
9971;DHT22;5026;51.494;11.974;2022-10-03T02:19:50;10.80;99.90
9971;DHT22;5026;51.494;11.974;2022-10-03T02:22:29;10.80;99.90
9971;DHT22;5026;51.494;11.974;2022-10-03T02:25:07;10.80;99.90
9971;DHT22;5026;51.494;11.974;2022-10-03T02:28:02;10.80;99.90
9971;DHT22;5026;51.494;11.974;2022-10-03T02:30:45;10.80;99.90
9971;DHT22;5026;51.494;11.974;2022-10-03T02:33:41;10.80;99.90
9971;DHT22;5026;51.494;11.974;2022-10-03T02:43:17;10.80;99.90
9971;DHT22;5026;51.494;11.974;2022-10-03T02:46:19;10.90;99.90
9971;DHT22;5026;51.494;11.974;2022-10-03T02:55:32;11.00;99.90
9971;DHT22;5026;51.494;11.974;2022-10-03T02:58:50;11.00;99.90
9971;DHT22;5026;51.494;11.974;2022-10-03T03:04:55;11.10;99.90
9971;DHT22;5026;51.494;11.974;2022-10-03T03:07:37;11.10;99.90
9971;DHT22;5026;51.494;11.974;2022-10-03T03:10:43;11.10;99.90
9971;DHT22;5026;51.494;11.974;2022-10-03T03:16:45;11.00;99.90
9971;DHT22;5026;51.494;11.974;2022-10-03T03:19:33;11.00;99.90
9971;DHT22;5026;51.494;11.974;2022-10-03T03:22:15;11.00;99.90
9971;DHT22;5026;51.494;11.974;2022-10-03T03:27:53;10.90;99.90
9971;DHT22;5026;51.494;11.974;2022-10-03T03:30:31;10.90;99.90
9971;DHT22;5026;51.494;11.974;2022-10-03T03:33:06;10.80;99.90
9971;DHT22;5026;51.494;11.974;2022-10-03T03:35:45;10.80;99.90
9971;DHT22;5026;51.494;11.974;2022-10-03T03:38:24;10.90;99.90
9971;DHT22;5026;51.494;11.974;2022-10-03T03:41:04;10.90;99.90
9971;DHT22;5026;51.494;11.974;2022-10-03T03:43:46;10.90;99.90
9971;DHT22;5026;51.494;11.974;2022-10-03T03:46:31;10.90;99.90
9971;DHT22;5026;51.494;11.974;2022-10-03T03:49:17;11.00;99.90
9971;DHT22;5026;51.494;11.974;2022-10-03T03:52:00;11.00;99.90
9971;DHT22;5026;51.494;11.974;2022-10-03T03:54:45;11.00;99.90
9971;DHT22;5026;51.494;11.974;2022-10-03T03:57:46;11.00;99.90
9971;DHT22;5026;51.494;11.974;2022-10-03T04:00:19;11.00;99.90
9971;DHT22;5026;51.494;11.974;2022-10-03T04:03:11;11.00;99.90
9971;DHT22;5026;51.494;11.974;2022-10-03T04:06:01;11.00;99.90
9971;DHT22;5026;51.494;11.974;2022-10-03T04:08:45;10.90;99.90
9971;DHT22;5026;51.494;11.974;2022-10-03T04:11:24;10.90;99.90
9971;DHT22;5026;51.494;11.974;2022-10-03T04:14:17;11.00;99.90
9971;DHT22;5026;51.494;11.974;2022-10-03T04:16:59;10.90;99.90
9971;DHT22;5026;51.494;11.974;2022-10-03T04:20:02;10.90;99.90
9971;DHT22;5026;51.494;11.974;2022-10-03T04:22:49;10.90;99.90
9971;DHT22;5026;51.494;11.974;2022-10-03T04:25:31;10.90;99.90
9971;DHT22;5026;51.494;11.974;2022-10-03T04:31:29;10.90;99.90
9971;DHT22;5026;51.494;11.974;2022-10-03T04:34:21;11.00;99.90
9971;DHT22;5026;51.494;11.974;2022-10-03T04:37:12;10.90;99.90
9971;DHT22;5026;51.494;11.974;2022-10-03T04:39:45;10.90;99.90
9971;DHT22;5026;51.494;11.974;2022-10-03T04:42:22;11.40;99.90
9971;DHT22;5026;51.494;11.974;2022-10-03T04:45:09;10.80;99.90
9971;DHT22;5026;51.494;11.974;2022-10-03T04:47:43;10.80;99.90
9971;DHT22;5026;51.494;11.974;2022-10-03T04:50:27;10.80;99.90
9971;DHT22;5026;51.494;11.974;2022-10-03T04:53:09;10.70;99.90
9971;DHT22;5026;51.494;11.974;2022-10-03T04:55:44;10.70;99.90
9971;DHT22;5026;51.494;11.974;2022-10-03T04:58:23;10.50;99.90
9971;DHT22;5026;51.494;11.974;2022-10-03T05:00:58;10.50;99.90
9971;DHT22;5026;51.494;11.974;2022-10-03T05:03:39;10.40;99.90
9971;DHT22;5026;51.494;11.974;2022-10-03T05:06:25;10.50;99.90
9971;DHT22;5026;51.494;11.974;2022-10-03T05:08:58;10.50;99.90
9971;DHT22;5026;51.494;11.974;2022-10-03T05:11:38;10.50;99.90
9971;DHT22;5026;51.494;11.974;2022-10-03T05:14:15;10.40;99.90
9971;DHT22;5026;51.494;11.974;2022-10-03T05:16:51;10.50;99.90
9971;DHT22;5026;51.494;11.974;2022-10-03T05:19:41;10.50;99.90
9971;DHT22;5026;51.494;11.974;2022-10-03T05:22:19;10.40;99.90
9971;DHT22;5026;51.494;11.974;2022-10-03T05:24:55;10.30;99.90
9971;DHT22;5026;51.494;11.974;2022-10-03T05:27:35;10.30;99.90
9971;DHT22;5026;51.494;11.974;2022-10-03T05:30:08;10.20;99.90
9971;DHT22;5026;51.494;11.974;2022-10-03T05:32:42;10.20;99.90
9971;DHT22;5026;51.494;11.974;2022-10-03T05:35:28;10.20;99.90
9971;DHT22;5026;51.494;11.974;2022-10-03T05:38:27;10.20;99.90
9971;DHT22;5026;51.494;11.974;2022-10-03T05:41:03;10.20;99.90
9971;DHT22;5026;51.494;11.974;2022-10-03T05:43:45;10.20;99.90
9971;DHT22;5026;51.494;11.974;2022-10-03T05:46:21;10.30;99.90
9971;DHT22;5026;51.494;11.974;2022-10-03T05:49:01;10.50;99.90
9971;DHT22;5026;51.494;11.974;2022-10-03T05:54:43;10.70;99.90
9971;DHT22;5026;51.494;11.974;2022-10-03T05:57:36;10.80;99.90
9971;DHT22;5026;51.494;11.974;2022-10-03T06:00:16;11.00;99.90
9971;DHT22;5026;51.494;11.974;2022-10-03T06:03:13;11.00;99.90
9971;DHT22;5026;51.494;11.974;2022-10-03T06:05:59;11.10;99.90
9971;DHT22;5026;51.494;11.974;2022-10-03T06:08:49;11.30;99.90
9971;DHT22;5026;51.494;11.974;2022-10-03T06:14:23;11.40;99.90
9971;DHT22;5026;51.494;11.974;2022-10-03T06:16:57;11.40;99.90
9971;DHT22;5026;51.494;11.974;2022-10-03T06:19:39;11.40;99.90
9971;DHT22;5026;51.494;11.974;2022-10-03T06:22:47;11.50;99.90
9971;DHT22;5026;51.494;11.974;2022-10-03T06:25:40;11.50;99.90
9971;DHT22;5026;51.494;11.974;2022-10-03T06:31:43;12.40;99.90
9971;DHT22;5026;51.494;11.974;2022-10-03T06:43:36;12.60;99.90
9971;DHT22;5026;51.494;11.974;2022-10-03T06:46:43;12.50;99.90
9971;DHT22;5026;51.494;11.974;2022-10-03T06:49:30;12.50;99.90
9971;DHT22;5026;51.494;11.974;2022-10-03T06:58:45;12.60;99.90
9971;DHT22;5026;51.494;11.974;2022-10-03T07:01:45;12.80;99.90
9971;DHT22;5026;51.494;11.974;2022-10-03T07:04:47;12.90;99.90
9971;DHT22;5026;51.494;11.974;2022-10-03T07:10:44;13.00;99.90
9971;DHT22;5026;51.494;11.974;2022-10-03T07:13:48;13.20;99.90
9971;DHT22;5026;51.494;11.974;2022-10-03T07:16:47;13.40;99.90
9971;DHT22;5026;51.494;11.974;2022-10-03T07:19:30;13.70;99.90
9971;DHT22;5026;51.494;11.974;2022-10-03T07:31:26;17.20;99.90
9971;DHT22;5026;51.494;11.974;2022-10-03T07:37:25;17.30;99.50
9971;DHT22;5026;51.494;11.974;2022-10-03T07:40:51;18.00;99.90
9971;DHT22;5026;51.494;11.974;2022-10-03T07:43:57;17.10;99.90
9971;DHT22;5026;51.494;11.974;2022-10-03T07:49:54;16.30;99.90
9971;DHT22;5026;51.494;11.974;2022-10-03T07:52:51;16.10;99.90
9971;DHT22;5026;51.494;11.974;2022-10-03T07:55:27;17.60;99.90
9971;DHT22;5026;51.494;11.974;2022-10-03T08:01:34;19.50;99.90
9971;DHT22;5026;51.494;11.974;2022-10-03T08:07:17;20.40;96.20
9971;DHT22;5026;51.494;11.974;2022-10-03T08:10:02;20.20;96.40
9971;DHT22;5026;51.494;11.974;2022-10-03T08:12:55;19.40;96.40
9971;DHT22;5026;51.494;11.974;2022-10-03T08:15:33;20.00;96.50
9971;DHT22;5026;51.494;11.974;2022-10-03T08:18:40;19.60;96.10
9971;DHT22;5026;51.494;11.974;2022-10-03T08:21:10;18.70;96.50
9971;DHT22;5026;51.494;11.974;2022-10-03T08:24:06;19.10;96.60
9971;DHT22;5026;51.494;11.974;2022-10-03T08:29:57;20.10;96.50
9971;DHT22;5026;51.494;11.974;2022-10-03T08:32:45;20.20;95.80
9971;DHT22;5026;51.494;11.974;2022-10-03T08:35:35;19.50;95.30
9971;DHT22;5026;51.494;11.974;2022-10-03T08:47:44;20.20;94.20
9971;DHT22;5026;51.494;11.974;2022-10-03T08:50:34;20.70;94.00
9971;DHT22;5026;51.494;11.974;2022-10-03T08:53:35;22.10;94.00
9971;DHT22;5026;51.494;11.974;2022-10-03T08:56:09;21.00;93.20
9971;DHT22;5026;51.494;11.974;2022-10-03T09:02:14;20.60;92.90
9971;DHT22;5026;51.494;11.974;2022-10-03T09:05:24;20.40;92.80
9971;DHT22;5026;51.494;11.974;2022-10-03T09:11:31;19.60;93.50
9971;DHT22;5026;51.494;11.974;2022-10-03T09:14:33;19.70;93.70
9971;DHT22;5026;51.494;11.974;2022-10-03T09:17:27;19.50;93.60
9971;DHT22;5026;51.494;11.974;2022-10-03T09:20:30;19.80;93.50
9971;DHT22;5026;51.494;11.974;2022-10-03T09:26:36;19.60;92.80
9971;DHT22;5026;51.494;11.974;2022-10-03T09:29:32;19.70;92.90
9971;DHT22;5026;51.494;11.974;2022-10-03T09:35:44;19.90;93.10
9971;DHT22;5026;51.494;11.974;2022-10-03T09:41:41;20.00;92.10
9971;DHT22;5026;51.494;11.974;2022-10-03T09:44:27;20.30;92.70
9971;DHT22;5026;51.494;11.974;2022-10-03T09:47:27;20.40;93.10
9971;DHT22;5026;51.494;11.974;2022-10-03T09:53:32;17.10;93.80
9971;DHT22;5026;51.494;11.974;2022-10-03T09:56:39;16.90;94.50
9971;DHT22;5026;51.494;11.974;2022-10-03T09:59:34;17.00;94.40
9971;DHT22;5026;51.494;11.974;2022-10-03T10:02:23;17.10;94.40
9971;DHT22;5026;51.494;11.974;2022-10-03T10:05:14;17.10;94.60
9971;DHT22;5026;51.494;11.974;2022-10-03T10:08:27;16.90;94.80
9971;DHT22;5026;51.494;11.974;2022-10-03T10:11:19;17.40;95.30
9971;DHT22;5026;51.494;11.974;2022-10-03T10:14:21;17.60;95.50
9971;DHT22;5026;51.494;11.974;2022-10-03T10:20:41;17.10;94.30
9971;DHT22;5026;51.494;11.974;2022-10-03T10:23:40;17.30;93.90
9971;DHT22;5026;51.494;11.974;2022-10-03T10:26:48;17.50;93.80
9971;DHT22;5026;51.494;11.974;2022-10-03T10:45:16;18.80;92.40
9971;DHT22;5026;51.494;11.974;2022-10-03T10:51:10;18.40;92.80
9971;DHT22;5026;51.494;11.974;2022-10-03T10:54:19;17.80;93.00
9971;DHT22;5026;51.494;11.974;2022-10-03T10:57:05;17.60;93.30
9971;DHT22;5026;51.494;11.974;2022-10-03T11:00:12;17.40;93.50
9971;DHT22;5026;51.494;11.974;2022-10-03T11:12:50;18.20;92.90
9971;DHT22;5026;51.494;11.974;2022-10-03T11:21:59;18.00;92.60
9971;DHT22;5026;51.494;11.974;2022-10-03T11:34:43;17.70;92.20
9971;DHT22;5026;51.494;11.974;2022-10-03T11:37:30;17.70;92.20
9971;DHT22;5026;51.494;11.974;2022-10-03T11:40:11;17.70;92.30
9971;DHT22;5026;51.494;11.974;2022-10-03T11:42:56;17.60;92.40
9971;DHT22;5026;51.494;11.974;2022-10-03T11:45:32;17.40;92.50
9971;DHT22;5026;51.494;11.974;2022-10-03T11:48:16;17.40;92.70
9971;DHT22;5026;51.494;11.974;2022-10-03T11:50:51;17.20;92.80
9971;DHT22;5026;51.494;11.974;2022-10-03T11:53:36;18.90;93.70
9971;DHT22;5026;51.494;11.974;2022-10-03T11:56:32;17.30;93.00
9971;DHT22;5026;51.494;11.974;2022-10-03T12:02:05;17.30;92.70
9971;DHT22;5026;51.494;11.974;2022-10-03T12:04:43;17.60;93.00
9971;DHT22;5026;51.494;11.974;2022-10-03T12:07:17;19.10;93.50
9971;DHT22;5026;51.494;11.974;2022-10-03T12:10:11;17.50;93.10
9971;DHT22;5026;51.494;11.974;2022-10-03T12:12:43;17.40;93.10
9971;DHT22;5026;51.494;11.974;2022-10-03T12:15:28;18.60;93.60
9971;DHT22;5026;51.494;11.974;2022-10-03T12:18:04;18.10;93.30
9971;DHT22;5026;51.494;11.974;2022-10-03T12:20:41;17.70;92.80
9971;DHT22;5026;51.494;11.974;2022-10-03T12:23:23;17.80;92.30
9971;DHT22;5026;51.494;11.974;2022-10-03T12:25:54;19.50;93.10
9971;DHT22;5026;51.494;11.974;2022-10-03T12:28:24;18.20;92.70
9971;DHT22;5026;51.494;11.974;2022-10-03T12:30:57;19.70;93.00
9971;DHT22;5026;51.494;11.974;2022-10-03T12:33:45;19.70;93.00
9971;DHT22;5026;51.494;11.974;2022-10-03T12:36:18;18.30;92.60
9971;DHT22;5026;51.494;11.974;2022-10-03T12:38:58;18.10;92.60
9971;DHT22;5026;51.494;11.974;2022-10-03T12:41:54;18.20;92.70
9971;DHT22;5026;51.494;11.974;2022-10-03T12:44:32;18.30;92.70
9971;DHT22;5026;51.494;11.974;2022-10-03T12:47:12;19.50;92.90
9971;DHT22;5026;51.494;11.974;2022-10-03T12:49:51;18.40;92.30
9971;DHT22;5026;51.494;11.974;2022-10-03T12:52:23;19.60;92.90
9971;DHT22;5026;51.494;11.974;2022-10-03T12:55:05;18.40;92.40
9971;DHT22;5026;51.494;11.974;2022-10-03T12:57:47;18.00;91.90
9971;DHT22;5026;51.494;11.974;2022-10-03T13:00:20;19.10;92.40
9971;DHT22;5026;51.494;11.974;2022-10-03T13:03:03;18.10;92.10
9971;DHT22;5026;51.494;11.974;2022-10-03T13:08:36;18.30;92.20
9971;DHT22;5026;51.494;11.974;2022-10-03T13:11:17;20.20;92.70
9971;DHT22;5026;51.494;11.974;2022-10-03T13:14:00;20.10;92.50
9971;DHT22;5026;51.494;11.974;2022-10-03T13:16:34;18.70;92.10
9971;DHT22;5026;51.494;11.974;2022-10-03T13:19:08;18.50;92.10
9971;DHT22;5026;51.494;11.974;2022-10-03T13:21:53;18.10;91.90
9971;DHT22;5026;51.494;11.974;2022-10-03T13:24:32;17.50;92.00
9971;DHT22;5026;51.494;11.974;2022-10-03T13:27:10;19.30;92.90
9971;DHT22;5026;51.494;11.974;2022-10-03T13:29:43;17.00;92.90
9971;DHT22;5026;51.494;11.974;2022-10-03T13:32:15;16.90;93.20
9971;DHT22;5026;51.494;11.974;2022-10-03T13:35:03;16.90;93.40
9971;DHT22;5026;51.494;11.974;2022-10-03T13:38:09;16.90;93.40
9971;DHT22;5026;51.494;11.974;2022-10-03T13:40:42;16.90;93.40
9971;DHT22;5026;51.494;11.974;2022-10-03T13:43:13;16.80;93.40
9971;DHT22;5026;51.494;11.974;2022-10-03T13:45:43;16.80;93.30
9971;DHT22;5026;51.494;11.974;2022-10-03T13:48:14;16.80;93.40
9971;DHT22;5026;51.494;11.974;2022-10-03T13:50:48;16.60;93.50
9971;DHT22;5026;51.494;11.974;2022-10-03T13:53:53;16.60;93.70
9971;DHT22;5026;51.494;11.974;2022-10-03T13:59:37;16.60;94.00
9971;DHT22;5026;51.494;11.974;2022-10-03T14:02:17;16.60;94.10
9971;DHT22;5026;51.494;11.974;2022-10-03T14:05:12;16.60;94.10
9971;DHT22;5026;51.494;11.974;2022-10-03T14:07:51;16.60;94.20
9971;DHT22;5026;51.494;11.974;2022-10-03T14:10:57;16.60;94.30
9971;DHT22;5026;51.494;11.974;2022-10-03T14:13:35;16.60;94.30
9971;DHT22;5026;51.494;11.974;2022-10-03T14:16:11;16.60;94.30
9971;DHT22;5026;51.494;11.974;2022-10-03T14:18:49;16.70;94.20
9971;DHT22;5026;51.494;11.974;2022-10-03T14:21:34;16.70;94.30
9971;DHT22;5026;51.494;11.974;2022-10-03T14:24:11;16.80;94.10
9971;DHT22;5026;51.494;11.974;2022-10-03T14:26:46;16.80;93.60
9971;DHT22;5026;51.494;11.974;2022-10-03T14:29:20;16.90;93.50
9971;DHT22;5026;51.494;11.974;2022-10-03T14:31:55;17.00;93.70
9971;DHT22;5026;51.494;11.974;2022-10-03T14:37:22;17.10;93.70
9971;DHT22;5026;51.494;11.974;2022-10-03T14:40:00;18.80;94.30
9971;DHT22;5026;51.494;11.974;2022-10-03T14:45:28;17.10;93.80
9971;DHT22;5026;51.494;11.974;2022-10-03T14:48:01;18.90;94.60
9971;DHT22;5026;51.494;11.974;2022-10-03T14:50:30;17.10;93.90
9971;DHT22;5026;51.494;11.974;2022-10-03T14:53:00;17.10;94.00
9971;DHT22;5026;51.494;11.974;2022-10-03T14:55:31;17.00;94.00
9971;DHT22;5026;51.494;11.974;2022-10-03T14:58:03;16.90;94.00
9971;DHT22;5026;51.494;11.974;2022-10-03T15:00:40;16.90;94.20
9971;DHT22;5026;51.494;11.974;2022-10-03T15:03:26;16.80;94.30
9971;DHT22;5026;51.494;11.974;2022-10-03T15:08:54;16.90;94.60
9971;DHT22;5026;51.494;11.974;2022-10-03T15:11:27;16.80;94.70
9971;DHT22;5026;51.494;11.974;2022-10-03T15:13:59;16.90;94.80
9971;DHT22;5026;51.494;11.974;2022-10-03T15:16:32;16.90;94.90
9971;DHT22;5026;51.494;11.974;2022-10-03T15:19:03;17.00;95.10
9971;DHT22;5026;51.494;11.974;2022-10-03T15:21:31;17.40;95.40
9971;DHT22;5026;51.494;11.974;2022-10-03T15:24:00;16.60;95.20
9971;DHT22;5026;51.494;11.974;2022-10-03T15:26:32;16.50;95.40
9971;DHT22;5026;51.494;11.974;2022-10-03T15:29:03;17.50;95.90
9971;DHT22;5026;51.494;11.974;2022-10-03T15:31:35;16.40;95.60
9971;DHT22;5026;51.494;11.974;2022-10-03T15:34:04;18.30;96.40
9971;DHT22;5026;51.494;11.974;2022-10-03T15:36:35;17.60;96.30
9971;DHT22;5026;51.494;11.974;2022-10-03T15:39:05;16.30;95.90
9971;DHT22;5026;51.494;11.974;2022-10-03T15:41:34;16.30;95.90
9971;DHT22;5026;51.494;11.974;2022-10-03T15:44:06;16.20;96.00
9971;DHT22;5026;51.494;11.974;2022-10-03T15:46:42;16.40;96.20
9971;DHT22;5026;51.494;11.974;2022-10-03T15:49:18;18.30;97.00
9971;DHT22;5026;51.494;11.974;2022-10-03T15:51:47;16.10;96.20
9971;DHT22;5026;51.494;11.974;2022-10-03T15:54:18;16.10;96.40
9971;DHT22;5026;51.494;11.974;2022-10-03T15:56:50;16.10;96.30
9971;DHT22;5026;51.494;11.974;2022-10-03T15:59:22;16.10;96.40
9971;DHT22;5026;51.494;11.974;2022-10-03T16:01:53;16.10;96.50
9971;DHT22;5026;51.494;11.974;2022-10-03T16:04:24;16.00;96.50
9971;DHT22;5026;51.494;11.974;2022-10-03T16:06:58;15.90;96.60
9971;DHT22;5026;51.494;11.974;2022-10-03T16:09:31;15.90;96.70
9971;DHT22;5026;51.494;11.974;2022-10-03T16:12:31;15.80;96.80
9971;DHT22;5026;51.494;11.974;2022-10-03T16:15:14;15.70;96.90
9971;DHT22;5026;51.494;11.974;2022-10-03T16:17:44;15.70;97.00
9971;DHT22;5026;51.494;11.974;2022-10-03T16:20:18;15.60;97.00
9971;DHT22;5026;51.494;11.974;2022-10-03T16:22:49;15.60;97.10
9971;DHT22;5026;51.494;11.974;2022-10-03T16:25:18;15.50;97.20
9971;DHT22;5026;51.494;11.974;2022-10-03T16:27:52;15.50;97.40
9971;DHT22;5026;51.494;11.974;2022-10-03T16:30:23;15.40;97.60
9971;DHT22;5026;51.494;11.974;2022-10-03T16:32:59;15.40;97.60
9971;DHT22;5026;51.494;11.974;2022-10-03T16:35:34;15.30;97.60
9971;DHT22;5026;51.494;11.974;2022-10-03T16:38:05;15.30;97.80
9971;DHT22;5026;51.494;11.974;2022-10-03T16:40:34;15.30;97.80
9971;DHT22;5026;51.494;11.974;2022-10-03T16:43:03;15.20;97.80
9971;DHT22;5026;51.494;11.974;2022-10-03T16:45:39;15.20;97.90
9971;DHT22;5026;51.494;11.974;2022-10-03T16:48:11;15.20;97.90
9971;DHT22;5026;51.494;11.974;2022-10-03T16:50:58;15.10;98.00
9971;DHT22;5026;51.494;11.974;2022-10-03T16:53:27;15.10;98.10
9971;DHT22;5026;51.494;11.974;2022-10-03T16:55:57;14.90;98.10
9971;DHT22;5026;51.494;11.974;2022-10-03T16:58:29;15.00;98.10
9971;DHT22;5026;51.494;11.974;2022-10-03T17:01:01;15.00;98.20
9971;DHT22;5026;51.494;11.974;2022-10-03T17:03:31;15.10;98.20
9971;DHT22;5026;51.494;11.974;2022-10-03T17:06:03;15.00;98.20
9971;DHT22;5026;51.494;11.974;2022-10-03T17:08:34;15.00;98.50
9971;DHT22;5026;51.494;11.974;2022-10-03T17:11:06;15.00;98.90
9971;DHT22;5026;51.494;11.974;2022-10-03T17:13:40;14.80;99.10
9971;DHT22;5026;51.494;11.974;2022-10-03T17:16:13;14.70;99.20
9971;DHT22;5026;51.494;11.974;2022-10-03T17:18:43;14.70;99.40
9971;DHT22;5026;51.494;11.974;2022-10-03T17:21:19;14.60;99.60
9971;DHT22;5026;51.494;11.974;2022-10-03T17:23:55;14.60;99.70
9971;DHT22;5026;51.494;11.974;2022-10-03T17:26:29;14.50;99.90
9971;DHT22;5026;51.494;11.974;2022-10-03T17:29:04;14.50;99.90
9971;DHT22;5026;51.494;11.974;2022-10-03T17:31:40;14.50;99.90
9971;DHT22;5026;51.494;11.974;2022-10-03T17:34:13;14.40;99.90
9971;DHT22;5026;51.494;11.974;2022-10-03T17:37:12;14.40;99.90
9971;DHT22;5026;51.494;11.974;2022-10-03T17:39:53;14.40;99.90
9971;DHT22;5026;51.494;11.974;2022-10-03T17:42:35;14.40;99.90
9971;DHT22;5026;51.494;11.974;2022-10-03T17:45:26;14.30;99.90
9971;DHT22;5026;51.494;11.974;2022-10-03T17:48:08;14.40;99.90
9971;DHT22;5026;51.494;11.974;2022-10-03T17:50:38;14.30;99.90
9971;DHT22;5026;51.494;11.974;2022-10-03T17:53:16;14.30;99.90
9971;DHT22;5026;51.494;11.974;2022-10-03T17:55:44;14.30;99.90
9971;DHT22;5026;51.494;11.974;2022-10-03T17:58:14;14.30;99.90
9971;DHT22;5026;51.494;11.974;2022-10-03T18:00:56;14.20;99.90
9971;DHT22;5026;51.494;11.974;2022-10-03T18:03:30;14.20;99.90
9971;DHT22;5026;51.494;11.974;2022-10-03T18:06:00;14.10;99.90
9971;DHT22;5026;51.494;11.974;2022-10-03T18:08:30;14.20;99.90
9971;DHT22;5026;51.494;11.974;2022-10-03T18:11:00;14.20;99.90
9971;DHT22;5026;51.494;11.974;2022-10-03T18:13:33;14.20;99.90
9971;DHT22;5026;51.494;11.974;2022-10-03T18:16:18;14.20;99.90
9971;DHT22;5026;51.494;11.974;2022-10-03T18:19:27;14.20;99.90
9971;DHT22;5026;51.494;11.974;2022-10-03T18:22:06;14.20;99.90
9971;DHT22;5026;51.494;11.974;2022-10-03T18:24:50;14.10;99.90
9971;DHT22;5026;51.494;11.974;2022-10-03T18:27:48;14.10;99.90
9971;DHT22;5026;51.494;11.974;2022-10-03T18:30:20;14.10;99.90
9971;DHT22;5026;51.494;11.974;2022-10-03T18:32:50;14.10;99.90
9971;DHT22;5026;51.494;11.974;2022-10-03T18:35:22;14.10;99.90
9971;DHT22;5026;51.494;11.974;2022-10-03T18:38:10;14.10;99.90
9971;DHT22;5026;51.494;11.974;2022-10-03T18:40:47;14.10;99.90
9971;DHT22;5026;51.494;11.974;2022-10-03T18:43:33;14.10;99.90
9971;DHT22;5026;51.494;11.974;2022-10-03T18:46:19;14.10;99.90
9971;DHT22;5026;51.494;11.974;2022-10-03T18:48:54;14.10;99.90
9971;DHT22;5026;51.494;11.974;2022-10-03T18:51:29;14.10;99.90
9971;DHT22;5026;51.494;11.974;2022-10-03T18:54:00;14.10;99.90
9971;DHT22;5026;51.494;11.974;2022-10-03T18:56:28;14.10;99.90
9971;DHT22;5026;51.494;11.974;2022-10-03T18:59:06;14.10;99.90
9971;DHT22;5026;51.494;11.974;2022-10-03T19:01:42;14.00;99.90
9971;DHT22;5026;51.494;11.974;2022-10-03T19:04:12;14.00;99.90
9971;DHT22;5026;51.494;11.974;2022-10-03T19:06:44;14.10;99.90
9971;DHT22;5026;51.494;11.974;2022-10-03T19:09:16;14.10;99.90
9971;DHT22;5026;51.494;11.974;2022-10-03T19:11:49;14.10;99.90
9971;DHT22;5026;51.494;11.974;2022-10-03T19:14:27;14.00;99.90
9971;DHT22;5026;51.494;11.974;2022-10-03T19:17:18;13.90;99.90
9971;DHT22;5026;51.494;11.974;2022-10-03T19:19:50;13.90;99.90
9971;DHT22;5026;51.494;11.974;2022-10-03T19:22:24;13.90;99.90
9971;DHT22;5026;51.494;11.974;2022-10-03T19:24:53;13.90;99.90
9971;DHT22;5026;51.494;11.974;2022-10-03T19:27:37;13.90;99.90
9971;DHT22;5026;51.494;11.974;2022-10-03T19:30:06;13.90;99.90
9971;DHT22;5026;51.494;11.974;2022-10-03T19:32:45;13.90;99.90
9971;DHT22;5026;51.494;11.974;2022-10-03T19:35:14;13.90;99.90
9971;DHT22;5026;51.494;11.974;2022-10-03T19:37:47;13.90;99.90
9971;DHT22;5026;51.494;11.974;2022-10-03T19:40:29;13.90;99.90
9971;DHT22;5026;51.494;11.974;2022-10-03T19:43:11;13.90;99.90
9971;DHT22;5026;51.494;11.974;2022-10-03T19:45:46;13.90;99.90
9971;DHT22;5026;51.494;11.974;2022-10-03T19:48:15;13.90;99.90
9971;DHT22;5026;51.494;11.974;2022-10-03T19:50:43;13.90;99.90
9971;DHT22;5026;51.494;11.974;2022-10-03T19:53:15;13.80;99.90
9971;DHT22;5026;51.494;11.974;2022-10-03T19:55:43;13.80;99.90
9971;DHT22;5026;51.494;11.974;2022-10-03T19:58:14;13.80;99.90
9971;DHT22;5026;51.494;11.974;2022-10-03T20:00:49;13.80;99.90
9971;DHT22;5026;51.494;11.974;2022-10-03T20:03:18;13.80;99.90
9971;DHT22;5026;51.494;11.974;2022-10-03T20:05:53;13.80;99.90
9971;DHT22;5026;51.494;11.974;2022-10-03T20:08:29;13.80;99.90
9971;DHT22;5026;51.494;11.974;2022-10-03T20:11:10;13.70;99.90
9971;DHT22;5026;51.494;11.974;2022-10-03T20:13:41;13.70;99.90
9971;DHT22;5026;51.494;11.974;2022-10-03T20:16:12;13.70;99.90
9971;DHT22;5026;51.494;11.974;2022-10-03T20:18:40;13.70;99.90
9971;DHT22;5026;51.494;11.974;2022-10-03T20:21:09;13.70;99.90
9971;DHT22;5026;51.494;11.974;2022-10-03T20:23:40;13.70;99.90